sensor_id;sensor_type;location;lat;lon;timestamp;temperature;humidity
20432;DHT22;10375;49.136;10.366;2023-01-08T00:02:25;1.90;99.90
20432;DHT22;10375;49.136;10.366;2023-01-08T00:04:52;1.80;99.90
20432;DHT22;10375;49.136;10.366;2023-01-08T00:07:19;1.80;99.90
20432;DHT22;10375;49.136;10.366;2023-01-08T00:09:46;1.80;99.90
20432;DHT22;10375;49.136;10.366;2023-01-08T00:12:16;1.80;99.90
20432;DHT22;10375;49.136;10.366;2023-01-08T00:14:43;1.70;99.90
20432;DHT22;10375;49.136;10.366;2023-01-08T00:17:10;1.70;99.90
20432;DHT22;10375;49.136;10.366;2023-01-08T00:19:37;1.70;99.90
20432;DHT22;10375;49.136;10.366;2023-01-08T00:22:07;1.70;99.90
20432;DHT22;10375;49.136;10.366;2023-01-08T00:24:34;1.60;99.90
20432;DHT22;10375;49.136;10.366;2023-01-08T00:27:01;1.60;99.90
20432;DHT22;10375;49.136;10.366;2023-01-08T00:29:28;1.50;99.90
20432;DHT22;10375;49.136;10.366;2023-01-08T00:31:55;1.50;99.90
20432;DHT22;10375;49.136;10.366;2023-01-08T00:34:22;1.60;99.90
20432;DHT22;10375;49.136;10.366;2023-01-08T00:36:49;1.50;99.90
20432;DHT22;10375;49.136;10.366;2023-01-08T00:39:16;1.50;99.90
20432;DHT22;10375;49.136;10.366;2023-01-08T00:41:43;1.50;99.90
20432;DHT22;10375;49.136;10.366;2023-01-08T00:44:11;1.40;99.90
20432;DHT22;10375;49.136;10.366;2023-01-08T00:46:38;1.40;99.90
20432;DHT22;10375;49.136;10.366;2023-01-08T00:49:05;1.40;99.90
20432;DHT22;10375;49.136;10.366;2023-01-08T00:51:32;1.40;99.90
20432;DHT22;10375;49.136;10.366;2023-01-08T00:53:59;1.40;99.90
20432;DHT22;10375;49.136;10.366;2023-01-08T00:56:26;1.40;99.90
20432;DHT22;10375;49.136;10.366;2023-01-08T00:58:54;1.40;99.90
20432;DHT22;10375;49.136;10.366;2023-01-08T01:01:21;1.40;99.90
20432;DHT22;10375;49.136;10.366;2023-01-08T01:03:49;1.40;99.90
20432;DHT22;10375;49.136;10.366;2023-01-08T01:06:16;1.40;99.90
20432;DHT22;10375;49.136;10.366;2023-01-08T01:08:43;1.50;99.90
20432;DHT22;10375;49.136;10.366;2023-01-08T01:11:17;1.40;99.90
20432;DHT22;10375;49.136;10.366;2023-01-08T01:13:45;1.30;99.90
20432;DHT22;10375;49.136;10.366;2023-01-08T01:16:12;1.30;99.90
20432;DHT22;10375;49.136;10.366;2023-01-08T01:18:39;1.30;99.90
20432;DHT22;10375;49.136;10.366;2023-01-08T01:21:25;1.30;99.90
20432;DHT22;10375;49.136;10.366;2023-01-08T01:23:54;1.30;99.90
20432;DHT22;10375;49.136;10.366;2023-01-08T01:26:22;1.30;99.90
20432;DHT22;10375;49.136;10.366;2023-01-08T01:28:51;1.20;99.90
20432;DHT22;10375;49.136;10.366;2023-01-08T01:31:19;1.20;99.90
20432;DHT22;10375;49.136;10.366;2023-01-08T01:33:46;1.20;99.90
20432;DHT22;10375;49.136;10.366;2023-01-08T01:36:15;1.20;99.90
20432;DHT22;10375;49.136;10.366;2023-01-08T01:38:47;1.20;99.90
20432;DHT22;10375;49.136;10.366;2023-01-08T01:41:18;1.20;99.90
20432;DHT22;10375;49.136;10.366;2023-01-08T01:43:48;1.20;99.90
20432;DHT22;10375;49.136;10.366;2023-01-08T01:46:21;1.20;99.90
20432;DHT22;10375;49.136;10.366;2023-01-08T01:48:52;1.30;99.90
20432;DHT22;10375;49.136;10.366;2023-01-08T01:51:20;1.40;99.90
20432;DHT22;10375;49.136;10.366;2023-01-08T01:53:48;1.40;99.90
20432;DHT22;10375;49.136;10.366;2023-01-08T01:56:15;1.40;99.90
20432;DHT22;10375;49.136;10.366;2023-01-08T01:58:42;1.40;99.90
20432;DHT22;10375;49.136;10.366;2023-01-08T02:01:09;1.40;99.90
20432;DHT22;10375;49.136;10.366;2023-01-08T02:03:38;1.40;99.90
20432;DHT22;10375;49.136;10.366;2023-01-08T02:08:54;1.40;99.90
20432;DHT22;10375;49.136;10.366;2023-01-08T02:16:50;1.50;99.90
20432;DHT22;10375;49.136;10.366;2023-01-08T02:19:36;1.40;99.90
20432;DHT22;10375;49.136;10.366;2023-01-08T02:24:57;1.40;99.90
20432;DHT22;10375;49.136;10.366;2023-01-08T02:27:28;1.30;99.90
20432;DHT22;10375;49.136;10.366;2023-01-08T02:29:56;1.30;99.90
20432;DHT22;10375;49.136;10.366;2023-01-08T02:32:27;1.30;99.90
20432;DHT22;10375;49.136;10.366;2023-01-08T02:34:58;1.30;99.90
20432;DHT22;10375;49.136;10.366;2023-01-08T02:37:25;1.30;99.90
20432;DHT22;10375;49.136;10.366;2023-01-08T02:42:29;1.30;99.90
20432;DHT22;10375;49.136;10.366;2023-01-08T02:45:20;1.30;99.90
20432;DHT22;10375;49.136;10.366;2023-01-08T02:47:54;1.30;99.90
20432;DHT22;10375;49.136;10.366;2023-01-08T02:50:39;1.40;99.90
20432;DHT22;10375;49.136;10.366;2023-01-08T02:55:47;1.40;99.90
20432;DHT22;10375;49.136;10.366;2023-01-08T02:58:15;1.40;99.90
20432;DHT22;10375;49.136;10.366;2023-01-08T03:00:44;1.40;99.90
20432;DHT22;10375;49.136;10.366;2023-01-08T03:03:19;1.40;99.90
20432;DHT22;10375;49.136;10.366;2023-01-08T03:05:55;1.40;99.90
20432;DHT22;10375;49.136;10.366;2023-01-08T03:08:24;1.40;99.90
20432;DHT22;10375;49.136;10.366;2023-01-08T03:11:03;1.40;99.90
20432;DHT22;10375;49.136;10.366;2023-01-08T03:13:43;1.50;99.90
20432;DHT22;10375;49.136;10.366;2023-01-08T03:16:20;1.50;99.90
20432;DHT22;10375;49.136;10.366;2023-01-08T03:18:55;1.50;99.90
20432;DHT22;10375;49.136;10.366;2023-01-08T03:21:25;1.50;99.90
20432;DHT22;10375;49.136;10.366;2023-01-08T03:23:52;1.50;99.90
20432;DHT22;10375;49.136;10.366;2023-01-08T03:26:23;1.60;99.90
20432;DHT22;10375;49.136;10.366;2023-01-08T03:28:52;1.70;99.90
20432;DHT22;10375;49.136;10.366;2023-01-08T03:31:20;1.80;99.90
20432;DHT22;10375;49.136;10.366;2023-01-08T03:33:49;2.00;99.90
20432;DHT22;10375;49.136;10.366;2023-01-08T03:36:20;2.00;99.90
20432;DHT22;10375;49.136;10.366;2023-01-08T03:41:27;1.90;99.90
20432;DHT22;10375;49.136;10.366;2023-01-08T03:43:55;2.00;99.90
20432;DHT22;10375;49.136;10.366;2023-01-08T03:46:28;2.00;99.90
20432;DHT22;10375;49.136;10.366;2023-01-08T03:48:58;2.00;99.90
20432;DHT22;10375;49.136;10.366;2023-01-08T03:51:26;2.10;99.90
20432;DHT22;10375;49.136;10.366;2023-01-08T03:53:56;2.10;99.90
20432;DHT22;10375;49.136;10.366;2023-01-08T03:56:24;2.10;99.90
20432;DHT22;10375;49.136;10.366;2023-01-08T03:58:51;2.10;99.90
20432;DHT22;10375;49.136;10.366;2023-01-08T04:01:18;2.00;99.90
20432;DHT22;10375;49.136;10.366;2023-01-08T04:03:45;2.00;99.90
20432;DHT22;10375;49.136;10.366;2023-01-08T04:06:12;2.00;99.90
20432;DHT22;10375;49.136;10.366;2023-01-08T04:08:39;2.00;99.90
20432;DHT22;10375;49.136;10.366;2023-01-08T04:11:06;2.00;99.90
20432;DHT22;10375;49.136;10.366;2023-01-08T04:13:33;2.00;99.90
20432;DHT22;10375;49.136;10.366;2023-01-08T04:16:00;2.10;99.90
20432;DHT22;10375;49.136;10.366;2023-01-08T04:18:27;2.10;99.90
20432;DHT22;10375;49.136;10.366;2023-01-08T04:20:54;2.10;99.90
20432;DHT22;10375;49.136;10.366;2023-01-08T04:23:21;2.10;99.90
20432;DHT22;10375;49.136;10.366;2023-01-08T04:25:48;2.10;99.90
20432;DHT22;10375;49.136;10.366;2023-01-08T04:28:15;2.10;99.90
20432;DHT22;10375;49.136;10.366;2023-01-08T04:30:42;2.10;99.90
20432;DHT22;10375;49.136;10.366;2023-01-08T04:33:09;2.10;99.90
20432;DHT22;10375;49.136;10.366;2023-01-08T04:35:36;2.10;99.90
20432;DHT22;10375;49.136;10.366;2023-01-08T04:38:03;2.10;99.90
20432;DHT22;10375;49.136;10.366;2023-01-08T04:40:33;2.10;99.90
20432;DHT22;10375;49.136;10.366;2023-01-08T04:43:00;2.20;99.90
20432;DHT22;10375;49.136;10.366;2023-01-08T04:45:28;2.20;99.90
20432;DHT22;10375;49.136;10.366;2023-01-08T04:47:58;2.20;99.90
20432;DHT22;10375;49.136;10.366;2023-01-08T04:50:26;2.30;99.90
20432;DHT22;10375;49.136;10.366;2023-01-08T04:52:53;2.30;99.90
20432;DHT22;10375;49.136;10.366;2023-01-08T04:55:20;2.40;99.90
20432;DHT22;10375;49.136;10.366;2023-01-08T04:57:47;2.50;99.90
20432;DHT22;10375;49.136;10.366;2023-01-08T05:00:14;2.50;99.90
20432;DHT22;10375;49.136;10.366;2023-01-08T05:02:41;2.60;99.90
20432;DHT22;10375;49.136;10.366;2023-01-08T05:05:08;2.60;99.90
20432;DHT22;10375;49.136;10.366;2023-01-08T05:07:35;2.70;99.90
20432;DHT22;10375;49.136;10.366;2023-01-08T05:10:03;2.70;99.90
20432;DHT22;10375;49.136;10.366;2023-01-08T05:12:30;2.70;99.90
20432;DHT22;10375;49.136;10.366;2023-01-08T05:14:57;2.70;99.90
20432;DHT22;10375;49.136;10.366;2023-01-08T05:17:24;2.70;99.90
20432;DHT22;10375;49.136;10.366;2023-01-08T05:19:51;2.70;99.90
20432;DHT22;10375;49.136;10.366;2023-01-08T05:22:18;2.70;99.90
20432;DHT22;10375;49.136;10.366;2023-01-08T05:24:45;2.70;99.90
20432;DHT22;10375;49.136;10.366;2023-01-08T05:27:12;2.80;99.90
20432;DHT22;10375;49.136;10.366;2023-01-08T05:29:39;2.90;99.90
20432;DHT22;10375;49.136;10.366;2023-01-08T05:32:13;3.00;99.90
20432;DHT22;10375;49.136;10.366;2023-01-08T05:34:41;3.00;99.90
20432;DHT22;10375;49.136;10.366;2023-01-08T05:37:08;3.00;99.90
20432;DHT22;10375;49.136;10.366;2023-01-08T05:39:42;3.00;99.90
20432;DHT22;10375;49.136;10.366;2023-01-08T05:42:09;3.00;99.90
20432;DHT22;10375;49.136;10.366;2023-01-08T05:44:36;3.10;99.90
20432;DHT22;10375;49.136;10.366;2023-01-08T05:47:11;3.10;99.90
20432;DHT22;10375;49.136;10.366;2023-01-08T05:49:38;3.20;99.90
20432;DHT22;10375;49.136;10.366;2023-01-08T05:52:06;3.10;99.90
20432;DHT22;10375;49.136;10.366;2023-01-08T05:54:39;3.10;99.90
20432;DHT22;10375;49.136;10.366;2023-01-08T05:57:06;3.20;99.90
20432;DHT22;10375;49.136;10.366;2023-01-08T05:59:33;3.20;99.90
20432;DHT22;10375;49.136;10.366;2023-01-08T06:02:00;3.20;99.90
20432;DHT22;10375;49.136;10.366;2023-01-08T06:04:27;3.20;99.90
20432;DHT22;10375;49.136;10.366;2023-01-08T06:06:54;3.20;99.90
20432;DHT22;10375;49.136;10.366;2023-01-08T06:09:21;3.30;99.90
20432;DHT22;10375;49.136;10.366;2023-01-08T06:11:47;3.30;99.90
20432;DHT22;10375;49.136;10.366;2023-01-08T06:14:15;3.30;99.90
20432;DHT22;10375;49.136;10.366;2023-01-08T06:16:42;3.30;99.90
20432;DHT22;10375;49.136;10.366;2023-01-08T06:19:10;3.30;99.90
20432;DHT22;10375;49.136;10.366;2023-01-08T06:21:37;3.40;99.90
20432;DHT22;10375;49.136;10.366;2023-01-08T06:24:05;3.40;99.90
20432;DHT22;10375;49.136;10.366;2023-01-08T06:26:31;3.30;99.90
20432;DHT22;10375;49.136;10.366;2023-01-08T06:28:59;3.40;99.90
20432;DHT22;10375;49.136;10.366;2023-01-08T06:31:26;3.40;99.90
20432;DHT22;10375;49.136;10.366;2023-01-08T06:33:53;3.40;99.90
20432;DHT22;10375;49.136;10.366;2023-01-08T06:36:20;3.40;99.90
20432;DHT22;10375;49.136;10.366;2023-01-08T06:38:53;3.40;99.90
20432;DHT22;10375;49.136;10.366;2023-01-08T06:41:21;3.40;99.90
20432;DHT22;10375;49.136;10.366;2023-01-08T06:43:48;3.50;99.90
20432;DHT22;10375;49.136;10.366;2023-01-08T06:46:15;3.50;99.90
20432;DHT22;10375;49.136;10.366;2023-01-08T06:48:42;3.60;99.90
20432;DHT22;10375;49.136;10.366;2023-01-08T06:51:09;3.60;99.90
20432;DHT22;10375;49.136;10.366;2023-01-08T06:53:36;3.60;99.90
20432;DHT22;10375;49.136;10.366;2023-01-08T06:56:03;3.70;99.90
20432;DHT22;10375;49.136;10.366;2023-01-08T06:58:33;3.60;99.90
20432;DHT22;10375;49.136;10.366;2023-01-08T07:01:00;3.60;99.90
20432;DHT22;10375;49.136;10.366;2023-01-08T07:03:27;3.50;99.90
20432;DHT22;10375;49.136;10.366;2023-01-08T07:05:54;3.50;99.90
20432;DHT22;10375;49.136;10.366;2023-01-08T07:08:21;3.50;99.90
20432;DHT22;10375;49.136;10.366;2023-01-08T07:10:48;3.50;99.90
20432;DHT22;10375;49.136;10.366;2023-01-08T07:13:15;3.50;99.90
20432;DHT22;10375;49.136;10.366;2023-01-08T07:15:42;3.60;99.90
20432;DHT22;10375;49.136;10.366;2023-01-08T07:18:11;3.60;99.90
20432;DHT22;10375;49.136;10.366;2023-01-08T07:20:38;3.70;99.90
20432;DHT22;10375;49.136;10.366;2023-01-08T07:23:08;3.70;99.90
20432;DHT22;10375;49.136;10.366;2023-01-08T07:25:36;3.60;99.90
20432;DHT22;10375;49.136;10.366;2023-01-08T07:28:03;3.60;99.90
20432;DHT22;10375;49.136;10.366;2023-01-08T07:30:31;3.60;99.90
20432;DHT22;10375;49.136;10.366;2023-01-08T07:32:58;3.60;99.90
20432;DHT22;10375;49.136;10.366;2023-01-08T07:35:26;3.60;99.90
20432;DHT22;10375;49.136;10.366;2023-01-08T07:37:53;3.60;99.90
20432;DHT22;10375;49.136;10.366;2023-01-08T07:40:20;3.50;99.90
20432;DHT22;10375;49.136;10.366;2023-01-08T07:42:47;3.50;99.90
20432;DHT22;10375;49.136;10.366;2023-01-08T07:45:14;3.50;99.90
20432;DHT22;10375;49.136;10.366;2023-01-08T07:47:41;3.40;99.90
20432;DHT22;10375;49.136;10.366;2023-01-08T07:50:08;3.40;99.90
20432;DHT22;10375;49.136;10.366;2023-01-08T07:52:36;3.50;99.90
20432;DHT22;10375;49.136;10.366;2023-01-08T07:55:03;3.50;99.90
20432;DHT22;10375;49.136;10.366;2023-01-08T07:57:30;3.50;99.90
20432;DHT22;10375;49.136;10.366;2023-01-08T07:59:57;3.50;99.90
20432;DHT22;10375;49.136;10.366;2023-01-08T08:02:24;3.50;99.90
20432;DHT22;10375;49.136;10.366;2023-01-08T08:04:52;3.50;99.90
20432;DHT22;10375;49.136;10.366;2023-01-08T08:07:18;3.50;99.90
20432;DHT22;10375;49.136;10.366;2023-01-08T08:09:49;3.60;99.90
20432;DHT22;10375;49.136;10.366;2023-01-08T08:12:15;3.60;99.90
20432;DHT22;10375;49.136;10.366;2023-01-08T08:14:42;3.70;99.90
20432;DHT22;10375;49.136;10.366;2023-01-08T08:17:09;3.80;99.90
20432;DHT22;10375;49.136;10.366;2023-01-08T08:19:36;3.90;99.90
20432;DHT22;10375;49.136;10.366;2023-01-08T08:22:03;3.90;99.90
20432;DHT22;10375;49.136;10.366;2023-01-08T08:24:30;3.90;99.90
20432;DHT22;10375;49.136;10.366;2023-01-08T08:26:57;4.00;99.90
20432;DHT22;10375;49.136;10.366;2023-01-08T08:29:24;4.10;99.90
20432;DHT22;10375;49.136;10.366;2023-01-08T08:32:25;4.10;99.90
20432;DHT22;10375;49.136;10.366;2023-01-08T08:34:52;4.10;99.90
20432;DHT22;10375;49.136;10.366;2023-01-08T08:37:37;4.20;99.90
20432;DHT22;10375;49.136;10.366;2023-01-08T08:40:05;4.20;99.90
20432;DHT22;10375;49.136;10.366;2023-01-08T08:42:32;4.30;99.90
20432;DHT22;10375;49.136;10.366;2023-01-08T08:45:17;4.40;99.90
20432;DHT22;10375;49.136;10.366;2023-01-08T08:47:44;4.50;99.90
20432;DHT22;10375;49.136;10.366;2023-01-08T08:50:11;4.60;99.90
20432;DHT22;10375;49.136;10.366;2023-01-08T08:55:44;4.60;99.90
20432;DHT22;10375;49.136;10.366;2023-01-08T08:58:12;4.60;99.90
20432;DHT22;10375;49.136;10.366;2023-01-08T09:00:40;4.70;99.90
20432;DHT22;10375;49.136;10.366;2023-01-08T09:03:14;4.70;99.90
20432;DHT22;10375;49.136;10.366;2023-01-08T09:05:42;4.80;99.90
20432;DHT22;10375;49.136;10.366;2023-01-08T09:08:09;4.90;99.90
20432;DHT22;10375;49.136;10.366;2023-01-08T09:10:38;5.00;99.90
20432;DHT22;10375;49.136;10.366;2023-01-08T09:13:07;5.00;99.90
20432;DHT22;10375;49.136;10.366;2023-01-08T09:15:36;5.10;99.90
20432;DHT22;10375;49.136;10.366;2023-01-08T09:18:03;5.20;99.90
20432;DHT22;10375;49.136;10.366;2023-01-08T09:20:30;5.20;99.90
20432;DHT22;10375;49.136;10.366;2023-01-08T09:22:58;5.20;99.90
20432;DHT22;10375;49.136;10.366;2023-01-08T09:25:26;5.20;99.90
20432;DHT22;10375;49.136;10.366;2023-01-08T09:28:01;5.20;99.90
20432;DHT22;10375;49.136;10.366;2023-01-08T09:30:28;5.20;99.90
20432;DHT22;10375;49.136;10.366;2023-01-08T09:33:00;5.20;99.90
20432;DHT22;10375;49.136;10.366;2023-01-08T09:35:29;5.30;99.90
20432;DHT22;10375;49.136;10.366;2023-01-08T09:37:56;5.30;99.90
20432;DHT22;10375;49.136;10.366;2023-01-08T09:40:36;5.30;99.90
20432;DHT22;10375;49.136;10.366;2023-01-08T09:43:05;5.20;99.90
20432;DHT22;10375;49.136;10.366;2023-01-08T09:45:36;5.30;99.90
20432;DHT22;10375;49.136;10.366;2023-01-08T09:48:10;5.30;99.90
20432;DHT22;10375;49.136;10.366;2023-01-08T09:50:38;5.30;99.90
20432;DHT22;10375;49.136;10.366;2023-01-08T09:53:13;5.30;99.90
20432;DHT22;10375;49.136;10.366;2023-01-08T09:55:42;5.40;99.90
20432;DHT22;10375;49.136;10.366;2023-01-08T09:58:32;5.40;99.90
20432;DHT22;10375;49.136;10.366;2023-01-08T10:01:02;5.40;99.90
20432;DHT22;10375;49.136;10.366;2023-01-08T10:03:54;5.40;99.90
20432;DHT22;10375;49.136;10.366;2023-01-08T10:06:18;5.50;99.90
20432;DHT22;10375;49.136;10.366;2023-01-08T10:08:45;5.50;99.90
20432;DHT22;10375;49.136;10.366;2023-01-08T10:11:13;5.50;99.90
20432;DHT22;10375;49.136;10.366;2023-01-08T10:13:45;5.50;99.90
20432;DHT22;10375;49.136;10.366;2023-01-08T10:16:29;5.60;99.90
20432;DHT22;10375;49.136;10.366;2023-01-08T10:18:57;5.50;99.90
20432;DHT22;10375;49.136;10.366;2023-01-08T10:21:29;5.50;99.90
20432;DHT22;10375;49.136;10.366;2023-01-08T10:23:57;5.60;99.90
20432;DHT22;10375;49.136;10.366;2023-01-08T10:26:30;5.60;99.90
20432;DHT22;10375;49.136;10.366;2023-01-08T10:29:17;5.60;99.90
20432;DHT22;10375;49.136;10.366;2023-01-08T10:31:54;5.70;99.90
20432;DHT22;10375;49.136;10.366;2023-01-08T10:34:32;5.80;99.90
20432;DHT22;10375;49.136;10.366;2023-01-08T10:37:28;5.80;99.90
20432;DHT22;10375;49.136;10.366;2023-01-08T10:42:34;5.80;99.90
20432;DHT22;10375;49.136;10.366;2023-01-08T10:45:05;5.80;99.90
20432;DHT22;10375;49.136;10.366;2023-01-08T10:47:37;5.90;99.90
20432;DHT22;10375;49.136;10.366;2023-01-08T10:50:16;5.90;99.90
20432;DHT22;10375;49.136;10.366;2023-01-08T10:53:05;5.90;99.90
20432;DHT22;10375;49.136;10.366;2023-01-08T10:55:34;5.90;99.90
20432;DHT22;10375;49.136;10.366;2023-01-08T11:00:36;6.00;99.90
20432;DHT22;10375;49.136;10.366;2023-01-08T11:03:05;6.00;99.90
20432;DHT22;10375;49.136;10.366;2023-01-08T11:05:38;6.00;99.90
20432;DHT22;10375;49.136;10.366;2023-01-08T11:08:16;6.00;99.90
20432;DHT22;10375;49.136;10.366;2023-01-08T11:10:58;6.00;99.90
20432;DHT22;10375;49.136;10.366;2023-01-08T11:13:26;6.00;99.90
20432;DHT22;10375;49.136;10.366;2023-01-08T11:16:05;6.00;99.90
20432;DHT22;10375;49.136;10.366;2023-01-08T11:18:45;6.10;99.90
20432;DHT22;10375;49.136;10.366;2023-01-08T11:21:25;6.10;99.90
20432;DHT22;10375;49.136;10.366;2023-01-08T11:24:16;6.10;99.90
20432;DHT22;10375;49.136;10.366;2023-01-08T11:26:53;6.10;99.90
20432;DHT22;10375;49.136;10.366;2023-01-08T11:29:43;6.10;99.90
20432;DHT22;10375;49.136;10.366;2023-01-08T11:34:58;6.20;99.90
20432;DHT22;10375;49.136;10.366;2023-01-08T11:37:33;6.30;99.90
20432;DHT22;10375;49.136;10.366;2023-01-08T11:40:01;6.30;99.90
20432;DHT22;10375;49.136;10.366;2023-01-08T11:43:02;6.30;99.90
20432;DHT22;10375;49.136;10.366;2023-01-08T11:51:48;6.50;99.90
20432;DHT22;10375;49.136;10.366;2023-01-08T12:02:53;6.70;99.90
20432;DHT22;10375;49.136;10.366;2023-01-08T12:08:14;6.90;99.90
20432;DHT22;10375;49.136;10.366;2023-01-08T12:13:56;7.10;99.90
20432;DHT22;10375;49.136;10.366;2023-01-08T12:22:46;7.50;99.90
20432;DHT22;10375;49.136;10.366;2023-01-08T12:33:46;7.70;99.90
20432;DHT22;10375;49.136;10.366;2023-01-08T12:36:23;7.70;99.90
20432;DHT22;10375;49.136;10.366;2023-01-08T12:39:17;7.70;99.90
20432;DHT22;10375;49.136;10.366;2023-01-08T12:41:48;7.80;99.90
20432;DHT22;10375;49.136;10.366;2023-01-08T12:44:22;7.80;99.90
20432;DHT22;10375;49.136;10.366;2023-01-08T12:46:52;7.80;99.90
20432;DHT22;10375;49.136;10.366;2023-01-08T12:49:27;7.90;99.90
20432;DHT22;10375;49.136;10.366;2023-01-08T12:52:15;7.90;99.90
20432;DHT22;10375;49.136;10.366;2023-01-08T12:54:52;8.00;99.90
20432;DHT22;10375;49.136;10.366;2023-01-08T12:57:47;8.00;99.90
20432;DHT22;10375;49.136;10.366;2023-01-08T13:00:24;8.00;99.90
20432;DHT22;10375;49.136;10.366;2023-01-08T13:02:59;8.00;99.90
20432;DHT22;10375;49.136;10.366;2023-01-08T13:05:34;8.10;99.90
20432;DHT22;10375;49.136;10.366;2023-01-08T13:08:05;8.10;99.90
20432;DHT22;10375;49.136;10.366;2023-01-08T13:10:59;8.10;99.90
20432;DHT22;10375;49.136;10.366;2023-01-08T13:18:40;8.10;99.90
20432;DHT22;10375;49.136;10.366;2023-01-08T13:21:17;8.10;99.90
20432;DHT22;10375;49.136;10.366;2023-01-08T13:24:04;8.10;99.90
20432;DHT22;10375;49.136;10.366;2023-01-08T13:26:33;8.10;99.90
20432;DHT22;10375;49.136;10.366;2023-01-08T13:29:40;8.10;99.90
20432;DHT22;10375;49.136;10.366;2023-01-08T13:37:33;8.10;99.90
20432;DHT22;10375;49.136;10.366;2023-01-08T13:40:00;8.10;99.90
20432;DHT22;10375;49.136;10.366;2023-01-08T13:42:29;8.10;99.90
20432;DHT22;10375;49.136;10.366;2023-01-08T13:44:59;8.00;99.90
20432;DHT22;10375;49.136;10.366;2023-01-08T13:47:30;8.00;99.90
20432;DHT22;10375;49.136;10.366;2023-01-08T13:50:01;8.00;99.90
20432;DHT22;10375;49.136;10.366;2023-01-08T13:52:42;8.00;99.90
20432;DHT22;10375;49.136;10.366;2023-01-08T13:55:45;8.00;99.90
20432;DHT22;10375;49.136;10.366;2023-01-08T13:58:24;7.90;99.90
20432;DHT22;10375;49.136;10.366;2023-01-08T14:00:53;7.80;99.90
20432;DHT22;10375;49.136;10.366;2023-01-08T14:03:37;7.70;99.90
20432;DHT22;10375;49.136;10.366;2023-01-08T14:06:18;7.70;99.90
20432;DHT22;10375;49.136;10.366;2023-01-08T14:11:19;7.60;99.90
20432;DHT22;10375;49.136;10.366;2023-01-08T14:13:47;7.60;99.90
20432;DHT22;10375;49.136;10.366;2023-01-08T14:16:15;7.50;99.90
20432;DHT22;10375;49.136;10.366;2023-01-08T14:18:44;7.50;99.90
20432;DHT22;10375;49.136;10.366;2023-01-08T14:21:12;7.50;99.90
20432;DHT22;10375;49.136;10.366;2023-01-08T14:23:44;7.50;99.90
20432;DHT22;10375;49.136;10.366;2023-01-08T14:26:36;7.40;99.90
20432;DHT22;10375;49.136;10.366;2023-01-08T14:29:13;7.40;99.90
20432;DHT22;10375;49.136;10.366;2023-01-08T14:31:52;7.30;99.90
20432;DHT22;10375;49.136;10.366;2023-01-08T14:34:21;7.30;99.90
20432;DHT22;10375;49.136;10.366;2023-01-08T14:36:50;7.20;99.90
20432;DHT22;10375;49.136;10.366;2023-01-08T14:39:25;7.20;99.90
20432;DHT22;10375;49.136;10.366;2023-01-08T14:42:05;7.10;99.90
20432;DHT22;10375;49.136;10.366;2023-01-08T14:45:05;7.00;99.90
20432;DHT22;10375;49.136;10.366;2023-01-08T14:47:44;7.00;99.90
20432;DHT22;10375;49.136;10.366;2023-01-08T14:50:24;6.90;99.90
20432;DHT22;10375;49.136;10.366;2023-01-08T14:55:45;7.00;99.90
20432;DHT22;10375;49.136;10.366;2023-01-08T14:58:25;7.00;99.90
20432;DHT22;10375;49.136;10.366;2023-01-08T15:00:57;6.90;99.90
20432;DHT22;10375;49.136;10.366;2023-01-08T15:03:37;6.90;99.90
20432;DHT22;10375;49.136;10.366;2023-01-08T15:06:05;6.90;99.90
20432;DHT22;10375;49.136;10.366;2023-01-08T15:08:35;6.80;99.90
20432;DHT22;10375;49.136;10.366;2023-01-08T15:13:46;6.70;99.90
20432;DHT22;10375;49.136;10.366;2023-01-08T15:16:36;6.70;99.90
20432;DHT22;10375;49.136;10.366;2023-01-08T15:19:09;6.60;99.90
20432;DHT22;10375;49.136;10.366;2023-01-08T15:21:37;6.60;99.90
20432;DHT22;10375;49.136;10.366;2023-01-08T15:24:06;6.60;99.90
20432;DHT22;10375;49.136;10.366;2023-01-08T15:26:33;6.50;99.90
20432;DHT22;10375;49.136;10.366;2023-01-08T15:29:04;6.50;99.90
20432;DHT22;10375;49.136;10.366;2023-01-08T15:31:45;6.50;99.90
20432;DHT22;10375;49.136;10.366;2023-01-08T15:34:13;6.40;99.90
20432;DHT22;10375;49.136;10.366;2023-01-08T15:36:42;6.40;99.90
20432;DHT22;10375;49.136;10.366;2023-01-08T15:39:09;6.40;99.90
20432;DHT22;10375;49.136;10.366;2023-01-08T15:41:37;6.30;99.90
20432;DHT22;10375;49.136;10.366;2023-01-08T15:44:24;6.20;99.90
20432;DHT22;10375;49.136;10.366;2023-01-08T15:46:53;6.20;99.90
20432;DHT22;10375;49.136;10.366;2023-01-08T15:49:20;6.20;99.90
20432;DHT22;10375;49.136;10.366;2023-01-08T15:51:49;6.20;99.90
20432;DHT22;10375;49.136;10.366;2023-01-08T15:54:18;6.10;99.90
20432;DHT22;10375;49.136;10.366;2023-01-08T15:56:46;6.10;99.90
20432;DHT22;10375;49.136;10.366;2023-01-08T15:59:13;6.00;99.90
20432;DHT22;10375;49.136;10.366;2023-01-08T16:01:41;6.00;99.90
20432;DHT22;10375;49.136;10.366;2023-01-08T16:04:08;5.90;99.90
20432;DHT22;10375;49.136;10.366;2023-01-08T16:06:35;5.80;99.90
20432;DHT22;10375;49.136;10.366;2023-01-08T16:09:02;5.70;99.90
20432;DHT22;10375;49.136;10.366;2023-01-08T16:11:30;5.70;99.90
20432;DHT22;10375;49.136;10.366;2023-01-08T16:13:57;5.80;99.90
20432;DHT22;10375;49.136;10.366;2023-01-08T16:16:24;5.80;99.90
20432;DHT22;10375;49.136;10.366;2023-01-08T16:18:51;5.80;99.90
20432;DHT22;10375;49.136;10.366;2023-01-08T16:21:18;5.80;99.90
20432;DHT22;10375;49.136;10.366;2023-01-08T16:23:45;5.80;99.90
20432;DHT22;10375;49.136;10.366;2023-01-08T16:26:14;5.80;99.90
20432;DHT22;10375;49.136;10.366;2023-01-08T16:28:41;5.80;99.90
20432;DHT22;10375;49.136;10.366;2023-01-08T16:31:09;5.80;99.90
20432;DHT22;10375;49.136;10.366;2023-01-08T16:33:36;5.90;99.90
20432;DHT22;10375;49.136;10.366;2023-01-08T16:36:05;5.80;99.90
20432;DHT22;10375;49.136;10.366;2023-01-08T16:38:34;5.80;99.90
20432;DHT22;10375;49.136;10.366;2023-01-08T16:41:01;5.80;99.90
20432;DHT22;10375;49.136;10.366;2023-01-08T16:43:29;5.80;99.90
20432;DHT22;10375;49.136;10.366;2023-01-08T16:45:57;5.90;99.90
20432;DHT22;10375;49.136;10.366;2023-01-08T16:48:29;5.80;99.90
20432;DHT22;10375;49.136;10.366;2023-01-08T16:51:04;5.60;99.90
20432;DHT22;10375;49.136;10.366;2023-01-08T16:53:32;5.60;99.90
20432;DHT22;10375;49.136;10.366;2023-01-08T16:55:59;5.50;99.90
20432;DHT22;10375;49.136;10.366;2023-01-08T16:58:26;5.40;99.90
20432;DHT22;10375;49.136;10.366;2023-01-08T17:00:53;5.40;99.90
20432;DHT22;10375;49.136;10.366;2023-01-08T17:03:21;5.30;99.90
20432;DHT22;10375;49.136;10.366;2023-01-08T17:05:49;5.20;99.90
20432;DHT22;10375;49.136;10.366;2023-01-08T17:08:16;5.20;99.90
20432;DHT22;10375;49.136;10.366;2023-01-08T17:10:45;5.00;99.90
20432;DHT22;10375;49.136;10.366;2023-01-08T17:13:13;5.00;99.90
20432;DHT22;10375;49.136;10.366;2023-01-08T17:15:41;4.90;99.90
20432;DHT22;10375;49.136;10.366;2023-01-08T17:18:08;4.80;99.90